sensor_id;sensor_type;location;lat;lon;timestamp;temperature;humidity
26623;DHT22;14254;50.968;5.366;2022-09-29T00:01:49;6.40;99.90
26623;DHT22;14254;50.968;5.366;2022-09-29T00:04:15;6.40;99.90
26623;DHT22;14254;50.968;5.366;2022-09-29T00:06:40;6.60;99.90
26623;DHT22;14254;50.968;5.366;2022-09-29T00:09:06;6.40;99.90
26623;DHT22;14254;50.968;5.366;2022-09-29T00:11:32;6.40;99.90
26623;DHT22;14254;50.968;5.366;2022-09-29T00:13:57;6.40;99.90
26623;DHT22;14254;50.968;5.366;2022-09-29T00:16:23;6.40;99.90
26623;DHT22;14254;50.968;5.366;2022-09-29T00:18:49;6.40;99.90
26623;DHT22;14254;50.968;5.366;2022-09-29T00:21:18;6.50;99.90
26623;DHT22;14254;50.968;5.366;2022-09-29T00:23:44;6.40;99.90
26623;DHT22;14254;50.968;5.366;2022-09-29T00:26:16;6.30;99.90
26623;DHT22;14254;50.968;5.366;2022-09-29T00:28:47;6.20;99.90
26623;DHT22;14254;50.968;5.366;2022-09-29T00:31:14;6.20;99.90
26623;DHT22;14254;50.968;5.366;2022-09-29T00:33:40;6.20;99.90
26623;DHT22;14254;50.968;5.366;2022-09-29T00:36:09;6.20;99.90
26623;DHT22;14254;50.968;5.366;2022-09-29T00:38:35;6.20;99.90
26623;DHT22;14254;50.968;5.366;2022-09-29T00:41:01;6.10;99.90
26623;DHT22;14254;50.968;5.366;2022-09-29T00:46:12;6.10;99.90
26623;DHT22;14254;50.968;5.366;2022-09-29T00:48:40;6.10;99.90
26623;DHT22;14254;50.968;5.366;2022-09-29T00:51:06;6.00;99.90
26623;DHT22;14254;50.968;5.366;2022-09-29T00:53:32;6.00;99.90
26623;DHT22;14254;50.968;5.366;2022-09-29T00:56:07;6.00;99.90
26623;DHT22;14254;50.968;5.366;2022-09-29T00:58:40;6.00;99.90
26623;DHT22;14254;50.968;5.366;2022-09-29T01:01:08;6.00;99.90
26623;DHT22;14254;50.968;5.366;2022-09-29T01:03:39;5.90;99.90
26623;DHT22;14254;50.968;5.366;2022-09-29T01:06:12;5.90;99.90
26623;DHT22;14254;50.968;5.366;2022-09-29T01:08:51;5.90;99.90
26623;DHT22;14254;50.968;5.366;2022-09-29T01:11:21;5.90;99.90
26623;DHT22;14254;50.968;5.366;2022-09-29T01:13:47;5.90;99.90
26623;DHT22;14254;50.968;5.366;2022-09-29T01:16:13;6.00;99.90
26623;DHT22;14254;50.968;5.366;2022-09-29T01:18:39;6.00;99.90
26623;DHT22;14254;50.968;5.366;2022-09-29T01:21:15;5.90;99.90
26623;DHT22;14254;50.968;5.366;2022-09-29T01:39:23;5.60;99.90
26623;DHT22;14254;50.968;5.366;2022-09-29T01:44:38;5.50;99.90
26623;DHT22;14254;50.968;5.366;2022-09-29T01:47:11;5.50;99.90
26623;DHT22;14254;50.968;5.366;2022-09-29T01:49:44;5.50;99.90
26623;DHT22;14254;50.968;5.366;2022-09-29T01:52:13;5.60;99.90
26623;DHT22;14254;50.968;5.366;2022-09-29T01:54:59;5.50;99.90
26623;DHT22;14254;50.968;5.366;2022-09-29T02:00:10;5.50;99.90
26623;DHT22;14254;50.968;5.366;2022-09-29T02:02:48;5.60;99.90
26623;DHT22;14254;50.968;5.366;2022-09-29T02:05:35;5.50;99.90
26623;DHT22;14254;50.968;5.366;2022-09-29T02:08:16;5.50;99.90
26623;DHT22;14254;50.968;5.366;2022-09-29T02:10:54;5.40;99.90
26623;DHT22;14254;50.968;5.366;2022-09-29T02:13:23;5.40;99.90
26623;DHT22;14254;50.968;5.366;2022-09-29T02:15:52;5.50;99.90
26623;DHT22;14254;50.968;5.366;2022-09-29T02:18:28;5.50;99.90
26623;DHT22;14254;50.968;5.366;2022-09-29T02:20:54;5.40;99.90
26623;DHT22;14254;50.968;5.366;2022-09-29T02:23:19;5.30;99.90
26623;DHT22;14254;50.968;5.366;2022-09-29T02:25:47;5.30;99.90
26623;DHT22;14254;50.968;5.366;2022-09-29T02:28:14;5.30;99.90
26623;DHT22;14254;50.968;5.366;2022-09-29T02:30:41;5.50;99.90
26623;DHT22;14254;50.968;5.366;2022-09-29T02:33:17;5.30;99.90
26623;DHT22;14254;50.968;5.366;2022-09-29T02:38:17;5.30;99.90
26623;DHT22;14254;50.968;5.366;2022-09-29T02:44:04;5.50;99.90
26623;DHT22;14254;50.968;5.366;2022-09-29T02:49:32;4.90;99.90
26623;DHT22;14254;50.968;5.366;2022-09-29T02:52:23;4.90;99.90
26623;DHT22;14254;50.968;5.366;2022-09-29T02:55:16;5.10;99.90
26623;DHT22;14254;50.968;5.366;2022-09-29T02:57:49;5.00;99.90
26623;DHT22;14254;50.968;5.366;2022-09-29T03:00:17;5.00;99.90
26623;DHT22;14254;50.968;5.366;2022-09-29T03:02:43;5.00;99.90
26623;DHT22;14254;50.968;5.366;2022-09-29T03:05:20;5.10;99.90
26623;DHT22;14254;50.968;5.366;2022-09-29T03:07:47;5.00;99.90
26623;DHT22;14254;50.968;5.366;2022-09-29T03:10:14;5.00;99.90
26623;DHT22;14254;50.968;5.366;2022-09-29T03:12:40;4.90;99.90
26623;DHT22;14254;50.968;5.366;2022-09-29T03:15:07;4.90;99.90
26623;DHT22;14254;50.968;5.366;2022-09-29T03:17:33;4.90;99.90
26623;DHT22;14254;50.968;5.366;2022-09-29T03:19:59;4.90;99.90
26623;DHT22;14254;50.968;5.366;2022-09-29T03:22:25;4.90;99.90
26623;DHT22;14254;50.968;5.366;2022-09-29T03:24:51;4.90;99.90
26623;DHT22;14254;50.968;5.366;2022-09-29T03:27:17;4.80;99.90
26623;DHT22;14254;50.968;5.366;2022-09-29T03:29:42;4.60;99.90
26623;DHT22;14254;50.968;5.366;2022-09-29T03:32:08;4.50;99.90
26623;DHT22;14254;50.968;5.366;2022-09-29T03:34:34;4.50;99.90
26623;DHT22;14254;50.968;5.366;2022-09-29T03:36:59;4.60;99.90
26623;DHT22;14254;50.968;5.366;2022-09-29T03:39:25;4.60;99.90
26623;DHT22;14254;50.968;5.366;2022-09-29T03:41:51;4.60;99.90
26623;DHT22;14254;50.968;5.366;2022-09-29T03:44:17;4.60;99.90
26623;DHT22;14254;50.968;5.366;2022-09-29T03:46:43;4.60;99.90
26623;DHT22;14254;50.968;5.366;2022-09-29T03:49:12;4.60;99.90
26623;DHT22;14254;50.968;5.366;2022-09-29T03:51:39;4.60;99.90
26623;DHT22;14254;50.968;5.366;2022-09-29T03:54:05;4.60;99.90
26623;DHT22;14254;50.968;5.366;2022-09-29T03:56:31;4.60;99.90
26623;DHT22;14254;50.968;5.366;2022-09-29T03:58:57;4.60;99.90
26623;DHT22;14254;50.968;5.366;2022-09-29T04:01:23;4.60;99.90
26623;DHT22;14254;50.968;5.366;2022-09-29T04:03:48;4.60;99.90
26623;DHT22;14254;50.968;5.366;2022-09-29T04:06:14;4.50;99.90
26623;DHT22;14254;50.968;5.366;2022-09-29T04:08:40;4.50;99.90
26623;DHT22;14254;50.968;5.366;2022-09-29T04:11:06;4.50;99.90
26623;DHT22;14254;50.968;5.366;2022-09-29T04:13:32;4.60;99.90
26623;DHT22;14254;50.968;5.366;2022-09-29T04:16:03;4.60;99.90
26623;DHT22;14254;50.968;5.366;2022-09-29T04:18:29;4.50;99.90
26623;DHT22;14254;50.968;5.366;2022-09-29T04:20:56;4.50;99.90
26623;DHT22;14254;50.968;5.366;2022-09-29T04:23:26;4.40;99.90
26623;DHT22;14254;50.968;5.366;2022-09-29T04:25:52;4.40;99.90
26623;DHT22;14254;50.968;5.366;2022-09-29T04:28:17;4.40;99.90
26623;DHT22;14254;50.968;5.366;2022-09-29T04:30:43;4.40;99.90
26623;DHT22;14254;50.968;5.366;2022-09-29T04:33:09;4.40;99.90
26623;DHT22;14254;50.968;5.366;2022-09-29T04:35:34;4.50;99.90
26623;DHT22;14254;50.968;5.366;2022-09-29T04:38:00;4.50;99.90
26623;DHT22;14254;50.968;5.366;2022-09-29T04:40:26;4.50;99.90
26623;DHT22;14254;50.968;5.366;2022-09-29T04:42:52;4.30;99.90
26623;DHT22;14254;50.968;5.366;2022-09-29T04:45:17;4.30;99.90
26623;DHT22;14254;50.968;5.366;2022-09-29T04:47:43;4.40;99.90
26623;DHT22;14254;50.968;5.366;2022-09-29T04:50:09;4.50;99.90
26623;DHT22;14254;50.968;5.366;2022-09-29T04:52:35;4.40;99.90
26623;DHT22;14254;50.968;5.366;2022-09-29T04:55:02;4.40;99.90
26623;DHT22;14254;50.968;5.366;2022-09-29T04:57:27;4.30;99.90
26623;DHT22;14254;50.968;5.366;2022-09-29T04:59:53;4.30;99.90
26623;DHT22;14254;50.968;5.366;2022-09-29T05:02:19;4.30;99.90
26623;DHT22;14254;50.968;5.366;2022-09-29T05:04:45;4.30;99.90
26623;DHT22;14254;50.968;5.366;2022-09-29T05:07:12;4.30;99.90
26623;DHT22;14254;50.968;5.366;2022-09-29T05:09:38;4.20;99.90
26623;DHT22;14254;50.968;5.366;2022-09-29T05:12:04;4.20;99.90
26623;DHT22;14254;50.968;5.366;2022-09-29T05:14:29;4.10;99.90
26623;DHT22;14254;50.968;5.366;2022-09-29T05:16:55;4.20;99.90
26623;DHT22;14254;50.968;5.366;2022-09-29T05:19:21;4.20;99.90
26623;DHT22;14254;50.968;5.366;2022-09-29T05:21:47;4.30;99.90
26623;DHT22;14254;50.968;5.366;2022-09-29T05:24:13;4.30;99.90
26623;DHT22;14254;50.968;5.366;2022-09-29T05:26:38;4.30;99.90
26623;DHT22;14254;50.968;5.366;2022-09-29T05:29:04;4.20;99.90
26623;DHT22;14254;50.968;5.366;2022-09-29T05:31:30;4.20;99.90
26623;DHT22;14254;50.968;5.366;2022-09-29T05:33:56;4.20;99.90
26623;DHT22;14254;50.968;5.366;2022-09-29T05:36:22;4.20;99.90
26623;DHT22;14254;50.968;5.366;2022-09-29T05:38:48;4.20;99.90
26623;DHT22;14254;50.968;5.366;2022-09-29T05:41:14;4.20;99.90
26623;DHT22;14254;50.968;5.366;2022-09-29T05:43:47;4.20;99.90
26623;DHT22;14254;50.968;5.366;2022-09-29T05:46:12;4.20;99.90
26623;DHT22;14254;50.968;5.366;2022-09-29T05:48:39;4.20;99.90
26623;DHT22;14254;50.968;5.366;2022-09-29T05:51:13;4.20;99.90
26623;DHT22;14254;50.968;5.366;2022-09-29T05:53:39;4.20;99.90
26623;DHT22;14254;50.968;5.366;2022-09-29T05:56:16;4.20;99.90
26623;DHT22;14254;50.968;5.366;2022-09-29T05:58:43;4.20;99.90
26623;DHT22;14254;50.968;5.366;2022-09-29T06:01:30;4.20;99.90
26623;DHT22;14254;50.968;5.366;2022-09-29T06:03:56;4.30;99.90
26623;DHT22;14254;50.968;5.366;2022-09-29T06:06:24;4.30;99.90
26623;DHT22;14254;50.968;5.366;2022-09-29T06:08:50;4.40;99.90
26623;DHT22;14254;50.968;5.366;2022-09-29T06:11:24;4.50;99.90
26623;DHT22;14254;50.968;5.366;2022-09-29T06:13:51;4.30;99.90
26623;DHT22;14254;50.968;5.366;2022-09-29T06:16:19;4.40;99.90
26623;DHT22;14254;50.968;5.366;2022-09-29T06:18:46;4.40;99.90
26623;DHT22;14254;50.968;5.366;2022-09-29T06:21:18;4.50;99.90
26623;DHT22;14254;50.968;5.366;2022-09-29T06:23:44;4.60;99.90
26623;DHT22;14254;50.968;5.366;2022-09-29T06:26:12;4.50;99.90
26623;DHT22;14254;50.968;5.366;2022-09-29T06:28:39;4.50;99.90
26623;DHT22;14254;50.968;5.366;2022-09-29T06:31:18;4.50;99.90
26623;DHT22;14254;50.968;5.366;2022-09-29T06:33:44;4.60;99.90
26623;DHT22;14254;50.968;5.366;2022-09-29T06:36:17;4.70;99.90
26623;DHT22;14254;50.968;5.366;2022-09-29T06:39:06;4.80;99.90
26623;DHT22;14254;50.968;5.366;2022-09-29T06:41:32;4.80;99.90
26623;DHT22;14254;50.968;5.366;2022-09-29T06:43:59;4.90;99.90
26623;DHT22;14254;50.968;5.366;2022-09-29T06:46:25;5.00;99.90
26623;DHT22;14254;50.968;5.366;2022-09-29T06:48:55;5.10;99.90
26623;DHT22;14254;50.968;5.366;2022-09-29T06:51:22;5.10;99.90
26623;DHT22;14254;50.968;5.366;2022-09-29T06:53:49;5.20;99.90
26623;DHT22;14254;50.968;5.366;2022-09-29T06:56:15;5.30;99.90
26623;DHT22;14254;50.968;5.366;2022-09-29T06:58:41;5.40;99.90
26623;DHT22;14254;50.968;5.366;2022-09-29T07:01:08;5.50;99.90
26623;DHT22;14254;50.968;5.366;2022-09-29T07:03:34;5.60;99.90
26623;DHT22;14254;50.968;5.366;2022-09-29T07:06:07;5.70;99.90
26623;DHT22;14254;50.968;5.366;2022-09-29T07:08:34;5.80;99.90
26623;DHT22;14254;50.968;5.366;2022-09-29T07:11:01;6.00;99.90
26623;DHT22;14254;50.968;5.366;2022-09-29T07:13:29;6.10;99.90
26623;DHT22;14254;50.968;5.366;2022-09-29T07:15:55;6.30;99.90
26623;DHT22;14254;50.968;5.366;2022-09-29T07:18:21;6.50;99.90
26623;DHT22;14254;50.968;5.366;2022-09-29T07:20:47;6.70;99.90
26623;DHT22;14254;50.968;5.366;2022-09-29T07:23:12;6.90;99.90
26623;DHT22;14254;50.968;5.366;2022-09-29T07:25:38;7.00;99.90
26623;DHT22;14254;50.968;5.366;2022-09-29T07:28:04;7.10;99.90
26623;DHT22;14254;50.968;5.366;2022-09-29T07:30:30;7.30;99.90
26623;DHT22;14254;50.968;5.366;2022-09-29T07:32:56;7.40;99.90
26623;DHT22;14254;50.968;5.366;2022-09-29T07:35:22;7.60;99.90
26623;DHT22;14254;50.968;5.366;2022-09-29T07:37:51;7.80;99.90
26623;DHT22;14254;50.968;5.366;2022-09-29T07:40:19;8.00;99.90
26623;DHT22;14254;50.968;5.366;2022-09-29T07:42:45;8.10;99.90
26623;DHT22;14254;50.968;5.366;2022-09-29T07:45:10;8.30;99.90
26623;DHT22;14254;50.968;5.366;2022-09-29T07:47:36;8.30;99.90
26623;DHT22;14254;50.968;5.366;2022-09-29T07:50:02;8.30;99.90
26623;DHT22;14254;50.968;5.366;2022-09-29T07:52:27;8.50;99.90
26623;DHT22;14254;50.968;5.366;2022-09-29T07:54:53;8.50;99.90
26623;DHT22;14254;50.968;5.366;2022-09-29T07:57:19;8.60;99.90
26623;DHT22;14254;50.968;5.366;2022-09-29T07:59:44;8.70;99.90
26623;DHT22;14254;50.968;5.366;2022-09-29T08:02:10;8.90;99.90
26623;DHT22;14254;50.968;5.366;2022-09-29T08:04:36;9.00;99.90
26623;DHT22;14254;50.968;5.366;2022-09-29T08:07:02;9.10;99.90
26623;DHT22;14254;50.968;5.366;2022-09-29T08:09:28;9.20;99.90
26623;DHT22;14254;50.968;5.366;2022-09-29T08:11:54;9.30;99.90
26623;DHT22;14254;50.968;5.366;2022-09-29T08:14:20;9.40;99.90
26623;DHT22;14254;50.968;5.366;2022-09-29T08:16:45;9.60;99.90
26623;DHT22;14254;50.968;5.366;2022-09-29T08:19:11;9.50;99.90
26623;DHT22;14254;50.968;5.366;2022-09-29T08:21:36;9.60;99.90
26623;DHT22;14254;50.968;5.366;2022-09-29T08:24:04;9.70;99.90
26623;DHT22;14254;50.968;5.366;2022-09-29T08:26:31;9.90;99.90
26623;DHT22;14254;50.968;5.366;2022-09-29T08:29:03;10.00;99.90
26623;DHT22;14254;50.968;5.366;2022-09-29T08:31:29;10.00;99.90
26623;DHT22;14254;50.968;5.366;2022-09-29T08:33:56;10.10;99.90
26623;DHT22;14254;50.968;5.366;2022-09-29T08:36:24;10.20;99.90
26623;DHT22;14254;50.968;5.366;2022-09-29T08:38:52;10.30;99.90
26623;DHT22;14254;50.968;5.366;2022-09-29T08:41:29;10.40;99.90
26623;DHT22;14254;50.968;5.366;2022-09-29T08:44:25;10.70;99.90
26623;DHT22;14254;50.968;5.366;2022-09-29T08:47:01;10.90;99.90
26623;DHT22;14254;50.968;5.366;2022-09-29T08:49:47;11.00;99.90
26623;DHT22;14254;50.968;5.366;2022-09-29T08:52:25;11.20;99.90
26623;DHT22;14254;50.968;5.366;2022-09-29T08:57:45;11.50;99.90
26623;DHT22;14254;50.968;5.366;2022-09-29T09:00:16;11.60;99.90
26623;DHT22;14254;50.968;5.366;2022-09-29T09:11:04;12.00;99.90
26623;DHT22;14254;50.968;5.366;2022-09-29T09:16:31;12.50;99.90
26623;DHT22;14254;50.968;5.366;2022-09-29T09:27:19;12.70;99.90
26623;DHT22;14254;50.968;5.366;2022-09-29T09:29:48;12.90;99.90
26623;DHT22;14254;50.968;5.366;2022-09-29T09:32:19;12.90;99.90
26623;DHT22;14254;50.968;5.366;2022-09-29T09:37:24;12.90;99.90
26623;DHT22;14254;50.968;5.366;2022-09-29T09:42:24;13.10;99.90
26623;DHT22;14254;50.968;5.366;2022-09-29T09:44:56;13.00;99.90
26623;DHT22;14254;50.968;5.366;2022-09-29T09:47:28;13.10;99.90
26623;DHT22;14254;50.968;5.366;2022-09-29T09:50:02;13.10;99.90
26623;DHT22;14254;50.968;5.366;2022-09-29T09:52:30;13.30;99.90
26623;DHT22;14254;50.968;5.366;2022-09-29T09:55:02;13.30;99.90
26623;DHT22;14254;50.968;5.366;2022-09-29T10:00:42;13.80;99.90
26623;DHT22;14254;50.968;5.366;2022-09-29T10:03:09;14.00;99.90
26623;DHT22;14254;50.968;5.366;2022-09-29T10:05:42;14.10;99.90
26623;DHT22;14254;50.968;5.366;2022-09-29T10:08:14;14.20;99.90
26623;DHT22;14254;50.968;5.366;2022-09-29T10:10:43;14.30;99.90
26623;DHT22;14254;50.968;5.366;2022-09-29T10:13:12;14.40;99.90
26623;DHT22;14254;50.968;5.366;2022-09-29T10:18:29;14.70;99.90
26623;DHT22;14254;50.968;5.366;2022-09-29T10:20:56;14.60;99.90
26623;DHT22;14254;50.968;5.366;2022-09-29T10:23:25;14.60;99.90
26623;DHT22;14254;50.968;5.366;2022-09-29T10:25:57;14.70;99.90
26623;DHT22;14254;50.968;5.366;2022-09-29T10:28:24;14.60;99.90
26623;DHT22;14254;50.968;5.366;2022-09-29T10:30:51;14.80;99.90
26623;DHT22;14254;50.968;5.366;2022-09-29T10:33:20;15.00;99.90
26623;DHT22;14254;50.968;5.366;2022-09-29T10:35:50;15.10;99.90
26623;DHT22;14254;50.968;5.366;2022-09-29T10:38:27;15.60;99.90
26623;DHT22;14254;50.968;5.366;2022-09-29T10:41:03;15.90;99.90
26623;DHT22;14254;50.968;5.366;2022-09-29T10:43:36;16.00;99.90
26623;DHT22;14254;50.968;5.366;2022-09-29T10:46:03;15.80;99.90
26623;DHT22;14254;50.968;5.366;2022-09-29T10:48:29;15.40;99.90
26623;DHT22;14254;50.968;5.366;2022-09-29T10:50:58;15.40;99.90
26623;DHT22;14254;50.968;5.366;2022-09-29T10:53:34;15.60;99.90
26623;DHT22;14254;50.968;5.366;2022-09-29T10:56:17;15.80;99.90
26623;DHT22;14254;50.968;5.366;2022-09-29T10:58:50;15.80;99.90
26623;DHT22;14254;50.968;5.366;2022-09-29T11:01:18;16.30;99.90
26623;DHT22;14254;50.968;5.366;2022-09-29T11:04:05;16.50;99.90
26623;DHT22;14254;50.968;5.366;2022-09-29T11:06:38;16.50;99.90
26623;DHT22;14254;50.968;5.366;2022-09-29T11:09:24;16.60;99.90
26623;DHT22;14254;50.968;5.366;2022-09-29T11:11:55;16.50;99.90
26623;DHT22;14254;50.968;5.366;2022-09-29T11:14:29;16.40;99.90
26623;DHT22;14254;50.968;5.366;2022-09-29T11:16:59;16.50;99.90
26623;DHT22;14254;50.968;5.366;2022-09-29T11:19:28;16.60;99.90
26623;DHT22;14254;50.968;5.366;2022-09-29T11:22:03;17.20;99.90
26623;DHT22;14254;50.968;5.366;2022-09-29T11:38:43;16.60;99.90
26623;DHT22;14254;50.968;5.366;2022-09-29T11:43:53;17.10;99.90
26623;DHT22;14254;50.968;5.366;2022-09-29T11:46:34;17.80;99.90
26623;DHT22;14254;50.968;5.366;2022-09-29T11:52:11;17.60;99.90
26623;DHT22;14254;50.968;5.366;2022-09-29T11:55:18;17.60;99.90
26623;DHT22;14254;50.968;5.366;2022-09-29T12:00:56;17.00;99.90
26623;DHT22;14254;50.968;5.366;2022-09-29T12:03:35;17.40;99.90
26623;DHT22;14254;50.968;5.366;2022-09-29T12:09:01;18.30;99.90
26623;DHT22;14254;50.968;5.366;2022-09-29T12:12:03;18.50;99.90
26623;DHT22;14254;50.968;5.366;2022-09-29T12:15:17;19.10;99.90
26623;DHT22;14254;50.968;5.366;2022-09-29T12:17:18;20.00;99.90
26623;DHT22;14254;50.968;5.366;2022-09-29T12:19:49;21.40;99.90
26623;DHT22;14254;50.968;5.366;2022-09-29T12:22:18;22.40;97.70
26623;DHT22;14254;50.968;5.366;2022-09-29T12:24:53;22.30;95.90
26623;DHT22;14254;50.968;5.366;2022-09-29T12:35:21;21.40;97.70
26623;DHT22;14254;50.968;5.366;2022-09-29T12:38:10;20.50;98.30
26623;DHT22;14254;50.968;5.366;2022-09-29T12:40:48;20.10;99.90
26623;DHT22;14254;50.968;5.366;2022-09-29T12:43:24;19.80;99.90
26623;DHT22;14254;50.968;5.366;2022-09-29T12:46:10;19.40;99.90
26623;DHT22;14254;50.968;5.366;2022-09-29T12:49:19;19.00;99.90
26623;DHT22;14254;50.968;5.366;2022-09-29T12:51:48;18.90;99.90
26623;DHT22;14254;50.968;5.366;2022-09-29T12:54:24;18.50;99.90
26623;DHT22;14254;50.968;5.366;2022-09-29T12:56:56;18.50;99.90
26623;DHT22;14254;50.968;5.366;2022-09-29T12:59:45;18.50;99.90
26623;DHT22;14254;50.968;5.366;2022-09-29T13:15:49;19.00;99.90
26623;DHT22;14254;50.968;5.366;2022-09-29T13:27:04;19.40;99.90
26623;DHT22;14254;50.968;5.366;2022-09-29T13:29:45;19.70;99.90
26623;DHT22;14254;50.968;5.366;2022-09-29T13:32:12;19.10;99.90
26623;DHT22;14254;50.968;5.366;2022-09-29T13:34:38;19.40;99.90
26623;DHT22;14254;50.968;5.366;2022-09-29T13:37:16;19.70;99.90
26623;DHT22;14254;50.968;5.366;2022-09-29T13:39:52;20.50;98.90
26623;DHT22;14254;50.968;5.366;2022-09-29T13:42:40;23.10;96.10
26623;DHT22;14254;50.968;5.366;2022-09-29T13:47:57;23.40;90.80
26623;DHT22;14254;50.968;5.366;2022-09-29T13:53:35;21.30;94.40
26623;DHT22;14254;50.968;5.366;2022-09-29T14:01:10;19.80;98.90
26623;DHT22;14254;50.968;5.366;2022-09-29T14:03:39;19.70;99.90
26623;DHT22;14254;50.968;5.366;2022-09-29T14:08:42;19.30;99.90
26623;DHT22;14254;50.968;5.366;2022-09-29T14:13:48;19.10;99.90
26623;DHT22;14254;50.968;5.366;2022-09-29T14:18:45;21.60;99.90
26623;DHT22;14254;50.968;5.366;2022-09-29T14:27:27;22.90;99.90
26623;DHT22;14254;50.968;5.366;2022-09-29T14:32:40;28.70;88.10
26623;DHT22;14254;50.968;5.366;2022-09-29T14:35:40;31.00;73.60
26623;DHT22;14254;50.968;5.366;2022-09-29T14:41:01;34.00;60.60
26623;DHT22;14254;50.968;5.366;2022-09-29T14:46:26;35.40;54.40
26623;DHT22;14254;50.968;5.366;2022-09-29T14:49:40;34.40;52.60
26623;DHT22;14254;50.968;5.366;2022-09-29T14:57:46;34.50;52.70
26623;DHT22;14254;50.968;5.366;2022-09-29T15:00:21;35.10;51.40
26623;DHT22;14254;50.968;5.366;2022-09-29T15:02:51;35.60;49.70
26623;DHT22;14254;50.968;5.366;2022-09-29T15:05:28;34.60;49.60
26623;DHT22;14254;50.968;5.366;2022-09-29T15:07:55;33.70;51.20
26623;DHT22;14254;50.968;5.366;2022-09-29T15:10:25;33.70;51.10
26623;DHT22;14254;50.968;5.366;2022-09-29T15:12:52;34.50;50.60
26623;DHT22;14254;50.968;5.366;2022-09-29T15:15:40;34.50;49.70
26623;DHT22;14254;50.968;5.366;2022-09-29T15:18:27;33.70;50.40
26623;DHT22;14254;50.968;5.366;2022-09-29T15:24:11;33.60;50.40
26623;DHT22;14254;50.968;5.366;2022-09-29T15:26:41;33.60;50.40
26623;DHT22;14254;50.968;5.366;2022-09-29T15:29:09;34.00;49.00
26623;DHT22;14254;50.968;5.366;2022-09-29T15:31:38;34.20;49.00
26623;DHT22;14254;50.968;5.366;2022-09-29T15:34:08;34.30;48.30
26623;DHT22;14254;50.968;5.366;2022-09-29T15:36:37;34.50;48.70
26623;DHT22;14254;50.968;5.366;2022-09-29T15:42:03;34.80;48.30
26623;DHT22;14254;50.968;5.366;2022-09-29T15:44:35;35.10;48.80
26623;DHT22;14254;50.968;5.366;2022-09-29T15:47:01;35.40;47.10
26623;DHT22;14254;50.968;5.366;2022-09-29T15:49:28;35.60;47.30
26623;DHT22;14254;50.968;5.366;2022-09-29T15:51:58;35.70;47.00
26623;DHT22;14254;50.968;5.366;2022-09-29T15:54:30;35.90;47.50
26623;DHT22;14254;50.968;5.366;2022-09-29T15:56:58;35.80;47.70
26623;DHT22;14254;50.968;5.366;2022-09-29T15:59:48;35.40;46.20
26623;DHT22;14254;50.968;5.366;2022-09-29T16:04:55;34.90;46.80
26623;DHT22;14254;50.968;5.366;2022-09-29T16:07:30;34.30;47.80
26623;DHT22;14254;50.968;5.366;2022-09-29T16:10:07;33.60;48.10
26623;DHT22;14254;50.968;5.366;2022-09-29T16:12:48;32.40;48.90
26623;DHT22;14254;50.968;5.366;2022-09-29T16:15:29;30.10;52.30
26623;DHT22;14254;50.968;5.366;2022-09-29T16:17:56;28.00;54.90
26623;DHT22;14254;50.968;5.366;2022-09-29T16:20:28;26.30;58.20
26623;DHT22;14254;50.968;5.366;2022-09-29T16:22:54;25.20;60.50
26623;DHT22;14254;50.968;5.366;2022-09-29T16:25:26;24.40;62.00
26623;DHT22;14254;50.968;5.366;2022-09-29T16:27:54;23.50;65.40
26623;DHT22;14254;50.968;5.366;2022-09-29T16:30:28;22.90;70.20
26623;DHT22;14254;50.968;5.366;2022-09-29T16:33:13;22.20;73.40
26623;DHT22;14254;50.968;5.366;2022-09-29T16:35:56;21.50;76.40
26623;DHT22;14254;50.968;5.366;2022-09-29T16:38:39;20.90;78.90
26623;DHT22;14254;50.968;5.366;2022-09-29T16:43:39;20.00;87.10
26623;DHT22;14254;50.968;5.366;2022-09-29T16:46:14;19.60;89.40
26623;DHT22;14254;50.968;5.366;2022-09-29T16:48:43;19.30;90.70
26623;DHT22;14254;50.968;5.366;2022-09-29T16:51:19;19.10;91.60
26623;DHT22;14254;50.968;5.366;2022-09-29T16:53:46;18.90;93.30
26623;DHT22;14254;50.968;5.366;2022-09-29T16:56:25;18.80;94.60
26623;DHT22;14254;50.968;5.366;2022-09-29T16:59:12;18.60;95.60
26623;DHT22;14254;50.968;5.366;2022-09-29T17:01:40;18.20;97.60
26623;DHT22;14254;50.968;5.366;2022-09-29T17:04:07;17.80;99.90
26623;DHT22;14254;50.968;5.366;2022-09-29T17:06:33;17.40;99.90
26623;DHT22;14254;50.968;5.366;2022-09-29T17:08:59;17.10;99.90
26623;DHT22;14254;50.968;5.366;2022-09-29T17:11:25;16.70;99.90
26623;DHT22;14254;50.968;5.366;2022-09-29T17:13:52;16.40;99.90
26623;DHT22;14254;50.968;5.366;2022-09-29T17:16:18;16.30;99.90
26623;DHT22;14254;50.968;5.366;2022-09-29T17:18:52;16.00;99.90
26623;DHT22;14254;50.968;5.366;2022-09-29T17:21:20;15.60;99.90
26623;DHT22;14254;50.968;5.366;2022-09-29T17:23:46;15.40;99.90
26623;DHT22;14254;50.968;5.366;2022-09-29T17:26:34;15.40;99.90
26623;DHT22;14254;50.968;5.366;2022-09-29T17:29:18;15.10;99.90
26623;DHT22;14254;50.968;5.366;2022-09-29T17:31:44;14.90;99.90
26623;DHT22;14254;50.968;5.366;2022-09-29T17:34:10;14.60;99.90
26623;DHT22;14254;50.968;5.366;2022-09-29T17:36:36;14.50;99.90
26623;DHT22;14254;50.968;5.366;2022-09-29T17:39:03;14.20;99.90
26623;DHT22;14254;50.968;5.366;2022-09-29T17:41:28;13.90;99.90
26623;DHT22;14254;50.968;5.366;2022-09-29T17:43:54;13.80;99.90
26623;DHT22;14254;50.968;5.366;2022-09-29T17:46:20;13.90;99.90
26623;DHT22;14254;50.968;5.366;2022-09-29T17:48:46;14.10;99.90
26623;DHT22;14254;50.968;5.366;2022-09-29T17:51:13;14.20;99.90
26623;DHT22;14254;50.968;5.366;2022-09-29T17:53:41;14.20;99.90
26623;DHT22;14254;50.968;5.366;2022-09-29T17:56:21;14.20;99.90
26623;DHT22;14254;50.968;5.366;2022-09-29T17:58:53;14.30;99.90
26623;DHT22;14254;50.968;5.366;2022-09-29T18:01:21;14.30;99.90
26623;DHT22;14254;50.968;5.366;2022-09-29T18:03:48;14.30;99.90
26623;DHT22;14254;50.968;5.366;2022-09-29T18:06:19;14.10;99.90
26623;DHT22;14254;50.968;5.366;2022-09-29T18:08:47;13.30;99.90
26623;DHT22;14254;50.968;5.366;2022-09-29T18:11:16;13.00;99.90
26623;DHT22;14254;50.968;5.366;2022-09-29T18:13:41;13.20;99.90
26623;DHT22;14254;50.968;5.366;2022-09-29T18:16:14;12.70;99.90
26623;DHT22;14254;50.968;5.366;2022-09-29T18:18:40;13.00;99.90
26623;DHT22;14254;50.968;5.366;2022-09-29T18:21:06;12.90;99.90
26623;DHT22;14254;50.968;5.366;2022-09-29T18:23:32;12.60;99.90
26623;DHT22;14254;50.968;5.366;2022-09-29T18:26:00;12.40;99.90
26623;DHT22;14254;50.968;5.366;2022-09-29T18:28:26;12.40;99.90
26623;DHT22;14254;50.968;5.366;2022-09-29T18:31:05;12.10;99.90
26623;DHT22;14254;50.968;5.366;2022-09-29T18:33:33;12.20;99.90
26623;DHT22;14254;50.968;5.366;2022-09-29T18:35:59;12.40;99.90
26623;DHT22;14254;50.968;5.366;2022-09-29T18:38:26;12.50;99.90
26623;DHT22;14254;50.968;5.366;2022-09-29T18:40:52;12.40;99.90
26623;DHT22;14254;50.968;5.366;2022-09-29T18:43:19;12.20;99.90
26623;DHT22;14254;50.968;5.366;2022-09-29T18:45:50;12.10;99.90
26623;DHT22;14254;50.968;5.366;2022-09-29T18:48:16;11.80;99.90
26623;DHT22;14254;50.968;5.366;2022-09-29T18:50:47;11.80;99.90